Time;durP1;ratioP1;P1;durP2;ratioP2;P2;SDS_P1;SDS_P2;PMS_P1;PMS_P2;Temp;Humidity;BMP_temperature;BMP_pressure;BME280_temperature;BME280_humidity;BME280_pressure;Samples;Min_cycle;Max_cycle;Signal;HPM_P1;HPM_P2
2024/03/22 00:00:00;;;;;;;15.05;9.52;;;;;;;7.46;100.00;100288.13;5070592;28;20034;-80
2024/03/22 00:02:26;;;;;;;15.18;8.93;;;;;;;7.56;100.00;100299.22;5088287;28;20536;-80
2024/03/22 00:04:51;;;;;;;14.95;9.45;;;;;;;7.31;100.00;100263.50;5088514;28;20032;-80
2024/03/22 00:07:17;;;;;;;14.68;9.40;;;;;;;7.46;99.65;100274.84;5070282;28;20032;-79
2024/03/22 00:09:42;;;;;;;14.18;9.05;;;;;;;7.52;98.84;100252.84;5088604;28;20863;-79
2024/03/22 00:12:07;;;;;;;14.93;10.35;;;;;;;7.20;99.86;100244.44;5088360;28;20031;-80
2024/03/22 00:14:33;;;;;;;17.13;9.60;;;;;;;7.37;100.00;100262.72;5088822;28;20032;-80
2024/03/22 00:16:58;;;;;;;16.98;9.57;;;;;;;7.12;100.00;100233.97;5088163;28;20028;-79
2024/03/22 00:19:24;;;;;;;17.92;9.95;;;;;;;7.31;100.00;100258.19;5088248;28;20121;-80
2024/03/22 00:21:49;;;;;;;16.75;9.82;;;;;;;7.38;100.00;100290.91;5088553;28;20036;-80
2024/03/22 00:24:15;;;;;;;19.45;10.07;;;;;;;7.06;100.00;100216.19;5088528;28;20024;-79
2024/03/22 00:26:40;;;;;;;18.88;11.23;;;;;;;7.48;100.00;100269.31;5088620;28;20708;-80
2024/03/22 00:29:06;;;;;;;16.60;9.77;;;;;;;7.54;99.48;100258.78;5088799;28;20044;-79
2024/03/22 00:31:31;;;;;;;15.27;8.70;;;;;;;7.47;100.00;100268.50;5069656;28;20020;-80
2024/03/22 00:33:57;;;;;;;13.05;8.05;;;;;;;7.49;100.00;100261.19;5069569;28;20032;-79
2024/03/22 00:36:22;;;;;;;15.65;9.80;;;;;;;7.65;98.77;100274.16;5088282;28;20104;-79
2024/03/22 00:38:47;;;;;;;18.98;11.10;;;;;;;7.56;98.64;100263.88;5088252;28;20024;-81
2024/03/22 00:41:13;;;;;;;17.77;10.13;;;;;;;7.82;96.48;100282.63;5088014;28;20047;-80
2024/03/22 00:43:39;;;;;;;16.85;9.98;;;;;;;7.80;97.51;100279.34;5069848;28;20032;-80
2024/03/22 00:46:04;;;;;;;13.85;9.07;;;;;;;7.52;97.42;100252.84;5088403;28;20499;-80
2024/03/22 00:48:30;;;;;;;12.55;8.10;;;;;;;7.20;100.00;100265.66;5088392;28;20043;-80
2024/03/22 00:50:55;;;;;;;14.65;9.00;;;;;;;7.10;100.00;100267.00;5087135;28;20028;-79
2024/03/22 00:53:21;;;;;;;12.10;8.05;;;;;;;7.11;100.00;100264.19;5087433;28;20093;-80
2024/03/22 00:55:50;;;;;;;12.80;8.60;;;;;;;6.83;100.00;100256.97;5088004;28;20481;-80
2024/03/22 00:58:17;;;;;;;15.07;9.23;;;;;;;7.15;100.00;100269.88;5088377;28;20031;-80
2024/03/22 01:00:44;;;;;;;14.52;9.00;;;;;;;6.89;100.00;100260.72;5087494;28;20504;-80
2024/03/22 01:03:09;;;;;;;13.80;8.70;;;;;;;6.49;100.00;100254.19;5087948;28;20528;-79
2024/03/22 01:05:35;;;;;;;14.02;8.85;;;;;;;6.63;100.00;100274.50;5087879;28;20032;-80
2024/03/22 01:08:01;;;;;;;15.77;9.40;;;;;;;6.96;100.00;100277.47;5088057;28;20031;-80
2024/03/22 01:10:27;;;;;;;14.88;9.68;;;;;;;7.12;100.00;100283.56;5087568;28;20032;-80
2024/03/22 01:12:52;;;;;;;15.75;9.80;;;;;;;6.83;100.00;100278.19;5086587;28;20034;-80
2024/03/22 01:15:18;;;;;;;14.77;9.80;;;;;;;6.89;100.00;100297.00;5069316;28;20082;-80
2024/03/22 01:17:43;;;;;;;16.10;10.02;;;;;;;6.84;100.00;100297.56;5086712;28;20032;-80
2024/03/22 01:20:09;;;;;;;14.50;9.32;;;;;;;6.72;100.00;100297.25;5087465;28;20070;-80
2024/03/22 01:22:35;;;;;;;16.98;9.95;;;;;;;6.30;100.00;100277.63;5077846;28;20024;-80
2024/03/22 01:25:00;;;;;;;13.85;9.27;;;;;;;6.45;100.00;100296.13;5069201;28;20039;-80
2024/03/22 01:27:25;;;;;;;15.57;8.93;;;;;;;6.49;100.00;100300.03;5069061;28;20067;-79
2024/03/22 01:29:51;;;;;;;14.48;9.07;;;;;;;6.00;100.00;100245.88;5086882;28;20047;-79
2024/03/22 01:32:16;;;;;;;12.77;7.85;;;;;;;6.32;100.00;100312.69;5087106;28;20054;-80
2024/03/22 01:34:42;;;;;;;11.50;7.72;;;;;;;6.26;100.00;100296.72;5068969;28;20032;-79
2024/03/22 01:37:07;;;;;;;13.05;7.60;;;;;;;6.16;100.00;100286.41;5087093;28;20059;-80
2024/03/22 01:39:33;;;;;;;12.35;7.55;;;;;;;6.34;100.00;100315.16;5068823;28;20028;-78
2024/03/22 01:41:58;;;;;;;11.27;7.55;;;;;;;6.32;100.00;100290.69;5087161;28;20722;-80
2024/03/22 01:44:32;;;;;;;14.10;8.07;;;;;;;6.33;100.00;100303.72;5068779;28;20036;-79
2024/03/22 01:46:59;;;;;;;12.93;7.53;;;;;;;6.03;100.00;100277.28;5087351;28;20040;-79
2024/03/22 01:49:25;;;;;;;13.07;8.13;;;;;;;5.90;100.00;100253.25;5086833;28;20644;-79
2024/03/22 01:51:51;;;;;;;12.75;8.57;;;;;;;5.77;100.00;100304.16;5086898;28;20024;-79
2024/03/22 01:54:17;;;;;;;12.95;8.15;;;;;;;5.37;100.00;100276.28;5087109;28;20114;-78
2024/03/22 01:56:43;;;;;;;14.13;8.65;;;;;;;5.93;100.00;100310.31;5087120;28;20046;-78
2024/03/22 01:59:09;;;;;;;13.32;8.50;;;;;;;5.03;100.00;100261.72;5087661;28;20027;-79
2024/03/22 02:01:35;;;;;;;14.90;8.35;;;;;;;5.63;100.00;100302.34;5087376;28;20077;-79
2024/03/22 02:04:01;;;;;;;13.70;7.88;;;;;;;5.70;100.00;100289.19;5068712;28;20036;-78
2024/03/22 02:06:26;;;;;;;13.55;7.82;;;;;;;5.70;100.00;100282.09;5069070;28;20028;-79
2024/03/22 02:08:51;;;;;;;14.07;8.30;;;;;;;5.26;100.00;100258.22;5086991;28;20093;-79
2024/03/22 02:11:18;;;;;;;15.75;9.52;;;;;;;5.80;100.00;100305.63;5087005;28;20036;-79
2024/03/22 02:13:44;;;;;;;13.85;9.32;;;;;;;5.83;100.00;100318.50;5086829;28;20036;-79
2024/03/22 02:16:09;;;;;;;13.90;8.85;;;;;;;5.75;100.00;100308.00;5087241;28;20794;-79
2024/03/22 02:18:35;;;;;;;16.58;9.55;;;;;;;5.88;100.00;100320.59;5087816;28;20484;-80
2024/03/22 02:21:00;;;;;;;14.70;9.18;;;;;;;5.80;100.00;100301.19;5087441;28;20032;-79
2024/03/22 02:23:39;;;;;;;15.48;8.80;;;;;;;5.80;100.00;100305.63;5090259;28;20035;-78
2024/03/22 02:26:06;;;;;;;15.00;8.40;;;;;;;5.43;100.00;100317.88;5053944;28;20039;-80
2024/03/22 02:28:33;;;;;;;12.82;8.40;;;;;;;5.56;100.00;100320.75;5072832;28;20533;-81
2024/03/22 02:30:59;;;;;;;12.07;8.00;;;;;;;5.40;100.00;100307.69;5089427;28;20080;-80
2024/03/22 02:33:25;;;;;;;13.27;8.45;;;;;;;5.41;100.00;100307.50;5095870;28;20746;-79
2024/03/22 02:35:50;;;;;;;14.52;9.02;;;;;;;5.39;100.00;100290.16;5095844;28;20492;-78
2024/03/22 02:38:17;;;;;;;15.90;9.43;;;;;;;5.34;100.00;100318.97;5095761;28;20032;-79
2024/03/22 02:40:43;;;;;;;13.32;7.88;;;;;;;4.99;100.00;100323.88;5096582;28;20416;-79
2024/03/22 02:43:09;;;;;;;13.88;8.48;;;;;;;5.09;100.00;100298.03;5098503;28;20043;-78
2024/03/22 02:45:34;;;;;;;15.57;9.05;;;;;;;4.96;100.00;100301.25;5097606;28;20028;-78
2024/03/22 02:48:00;;;;;;;15.43;9.10;;;;;;;5.21;100.00;100324.84;5097558;28;20050;-78
2024/03/22 02:50:25;;;;;;;14.02;8.32;;;;;;;4.69;100.00;100299.13;5097062;28;20031;-78
2024/03/22 02:52:51;;;;;;;12.70;8.23;;;;;;;4.93;100.00;100298.97;5096855;28;20036;-78
2024/03/22 02:55:16;;;;;;;14.20;9.82;;;;;;;5.13;100.00;100320.47;5096570;28;20087;-78
2024/03/22 02:57:42;;;;;;;15.57;9.40;;;;;;;4.91;100.00;100300.16;5097124;28;20450;-79
2024/03/22 03:00:08;;;;;;;15.55;7.97;;;;;;;5.31;100.00;100321.97;5096204;28;20046;-78
2024/03/22 03:02:33;;;;;;;14.75;8.40;;;;;;;5.03;100.00;100296.91;5094928;28;20032;-78
2024/03/22 03:04:59;;;;;;;14.35;9.00;;;;;;;4.98;100.00;100311.63;5093059;28;20031;-78
2024/03/22 03:07:25;;;;;;;15.18;8.52;;;;;;;4.40;100.00;100296.13;5092513;28;20781;-78
2024/03/22 03:09:50;;;;;;;11.98;7.63;;;;;;;3.85;100.00;100281.19;5073737;28;20052;-79
2024/03/22 03:12:16;;;;;;;11.77;7.38;;;;;;;3.86;100.00;100314.47;5073535;28;20123;-79
2024/03/22 03:14:41;;;;;;;13.98;8.93;;;;;;;4.03;100.00;100294.97;5072967;28;20783;-80
2024/03/22 03:17:07;;;;;;;13.77;8.77;;;;;;;3.70;100.00;100319.78;5090720;28;20027;-79
2024/03/22 03:19:32;;;;;;;14.50;8.73;;;;;;;4.01;100.00;100323.34;5072497;28;20028;-80
2024/03/22 03:21:58;;;;;;;15.20;9.00;;;;;;;4.16;100.00;100298.88;5090324;28;20032;-79
2024/03/22 03:24:23;;;;;;;15.13;9.27;;;;;;;4.05;100.00;100280.81;5089898;28;20032;-79
2024/03/22 03:26:49;;;;;;;18.85;9.45;;;;;;;4.02;100.00;100288.06;5089919;28;20016;-79
2024/03/22 03:29:14;;;;;;;13.23;9.25;;;;;;;4.30;100.00;100347.53;5089977;28;20512;-78
2024/03/22 03:31:40;;;;;;;19.85;11.32;;;;;;;4.26;100.00;100333.81;5089704;28;20566;-79
2024/03/22 03:34:05;;;;;;;21.10;11.95;;;;;;;4.26;100.00;100335.66;5089478;28;20040;-79
2024/03/22 03:36:31;;;;;;;26.63;15.07;;;;;;;4.29;100.00;100335.28;5089807;28;20110;-78
2024/03/22 03:38:56;;;;;;;24.70;14.80;;;;;;;4.28;100.00;100345.03;5070875;28;20028;-79
2024/03/22 03:41:22;;;;;;;23.55;14.18;;;;;;;4.36;100.00;100337.09;5088978;28;20086;-79
2024/03/22 03:43:47;;;;;;;25.52;14.55;;;;;;;4.40;100.00;100348.94;5088784;28;20156;-79
2024/03/22 03:46:13;;;;;;;27.90;15.15;;;;;;;4.35;100.00;100340.75;5071112;28;20087;-79
2024/03/22 03:48:38;;;;;;;31.42;16.20;;;;;;;4.45;100.00;100350.25;5071424;28;20036;-79
2024/03/22 03:51:04;;;;;;;27.42;15.77;;;;;;;4.45;100.00;100368.75;5070897;28;20036;-80
2024/03/22 03:53:30;;;;;;;26.77;14.27;;;;;;;4.44;100.00;100349.44;5089284;28;20420;-79
2024/03/22 03:55:55;;;;;;;27.33;15.18;;;;;;;4.41;100.00;100334.78;5088823;28;20039;-79
2024/03/22 03:58:21;;;;;;;85.32;41.35;;;;;;;4.30;100.00;100387.13;5089216;28;20036;-79
2024/03/22 04:00:46;;;;;;;34.63;19.15;;;;;;;3.88;100.00;100365.25;5088881;28;20024;-79
2024/03/22 04:03:12;;;;;;;24.30;15.73;;;;;;;3.46;100.00;100368.13;5089154;28;20028;-79
2024/03/22 04:05:37;;;;;;;24.33;14.55;;;;;;;3.11;100.00;100399.88;5068582;28;20066;-79
2024/03/22 04:08:03;;;;;;;26.20;15.55;;;;;;;3.49;100.00;100402.88;5088940;28;20039;-79
2024/03/22 04:10:28;;;;;;;25.35;15.52;;;;;;;3.02;100.00;100353.41;5076571;28;20024;-79
2024/03/22 04:12:54;;;;;;;32.50;21.20;;;;;;;3.74;100.00;100402.88;5088647;28;20463;-80
2024/03/22 04:15:19;;;;;;;28.48;20.38;;;;;;;3.85;100.00;100368.25;5088739;28;20028;-80
2024/03/22 04:17:44;;;;;;;27.45;18.52;;;;;;;3.92;100.00;100376.31;5070222;28;20038;-79
2024/03/22 04:20:11;;;;;;;30.08;19.25;;;;;;;4.08;100.00;100391.28;5088739;28;20016;-80
2024/03/22 04:22:37;;;;;;;31.35;19.02;;;;;;;3.96;100.00;100389.03;5088789;28;20028;-80
2024/03/22 04:25:02;;;;;;;36.42;23.67;;;;;;;3.65;100.00;100390.69;5069976;28;20055;-81
2024/03/22 04:27:28;;;;;;;37.80;25.75;;;;;;;3.94;100.00;100406.84;5088397;28;20054;-80
2024/03/22 04:29:53;;;;;;;42.55;26.52;;;;;;;4.13;100.00;100396.91;5088228;28;20048;-80
2024/03/22 04:32:18;;;;;;;31.73;19.73;;;;;;;4.45;100.00;100418.91;5088143;28;20032;-79
2024/03/22 04:34:44;;;;;;;31.67;19.42;;;;;;;4.18;100.00;100408.59;5087392;28;20032;-81
2024/03/22 04:37:11;;;;;;;29.17;18.92;;;;;;;3.63;100.00;100431.22;5088543;28;20094;-79
2024/03/22 04:39:37;;;;;;;28.55;17.83;;;;;;;3.89;100.00;100422.34;5088494;28;20052;-80
2024/03/22 04:42:03;;;;;;;53.30;25.58;;;;;;;3.88;100.00;100439.13;5087871;28;20024;-79
2024/03/22 04:44:29;;;;;;;48.35;25.80;;;;;;;4.15;100.00;100416.03;5087882;28;20019;-79
2024/03/22 04:46:54;;;;;;;37.30;24.42;;;;;;;4.36;100.00;100437.44;5087873;28;20449;-80
2024/03/22 04:49:20;;;;;;;32.42;20.42;;;;;;;4.49;100.00;100430.78;5088132;28;20059;-79
2024/03/22 04:51:45;;;;;;;30.48;18.90;;;;;;;4.40;100.00;100422.88;5087669;28;20044;-80
2024/03/22 04:54:10;;;;;;;30.10;17.67;;;;;;;4.57;100.00;100417.56;5068763;28;20088;-80
2024/03/22 04:56:36;;;;;;;25.10;15.38;;;;;;;4.72;100.00;100444.91;5069494;28;20063;-80
2024/03/22 04:59:01;;;;;;;22.83;15.40;;;;;;;4.69;100.00;100453.16;5088082;28;20467;-80
2024/03/22 05:01:27;;;;;;;23.80;16.10;;;;;;;4.85;100.00;100425.84;5087405;28;20104;-79
2024/03/22 05:03:52;;;;;;;25.38;14.65;;;;;;;4.84;100.00;100397.78;5087408;28;21437;-80
2024/03/22 05:06:18;;;;;;;22.73;15.10;;;;;;;5.01;100.00;100448.75;5087703;28;20055;-80
2024/03/22 05:08:44;;;;;;;23.95;14.07;;;;;;;5.14;100.00;100441.06;5087727;28;20036;-80
2024/03/22 05:11:09;;;;;;;24.05;16.00;;;;;;;5.54;100.00;100457.69;5087562;28;20036;-80
2024/03/22 05:13:35;;;;;;;23.02;13.68;;;;;;;5.38;100.00;100404.91;5087724;28;20028;-80
2024/03/22 05:16:00;;;;;;;22.55;14.32;;;;;;;5.68;100.00;100458.75;5069115;28;20097;-80
2024/03/22 05:18:25;;;;;;;22.42;14.50;;;;;;;5.57;100.00;100435.34;5068965;28;20135;-79
2024/03/22 05:20:51;;;;;;;26.30;14.45;;;;;;;5.55;100.00;100426.75;5069303;28;20536;-79
2024/03/22 05:23:18;;;;;;;22.15;14.07;;;;;;;5.66;100.00;100459.91;5087287;28;20078;-80
2024/03/22 05:25:43;;;;;;;26.00;17.77;;;;;;;5.46;100.00;100476.25;5087259;28;20055;-79
2024/03/22 05:28:09;;;;;;;24.70;15.25;;;;;;;5.39;100.00;100454.13;5087018;28;20024;-80
2024/03/22 05:30:34;;;;;;;24.80;14.57;;;;;;;5.27;100.00;100452.88;5086829;28;20047;-79
2024/03/22 05:33:00;;;;;;;22.73;13.45;;;;;;;5.49;100.00;100475.88;5087113;28;20481;-80
2024/03/22 05:35:26;;;;;;;24.70;14.43;;;;;;;5.17;100.00;100472.47;5086315;28;20101;-80
2024/03/22 05:37:52;;;;;;;23.48;14.77;;;;;;;5.30;100.00;100455.19;5069098;28;20058;-80
2024/03/22 05:40:18;;;;;;;21.08;12.48;;;;;;;5.82;100.00;100449.19;5069106;28;20404;-79
2024/03/22 05:42:43;;;;;;;22.52;13.23;;;;;;;6.10;100.00;100456.59;5086929;28;20024;-80
2024/03/22 05:45:09;;;;;;;26.98;16.52;;;;;;;6.26;100.00;100445.84;5068577;28;20035;-80
2024/03/22 05:47:34;;;;;;;26.48;15.57;;;;;;;6.47;100.00;100441.66;5087377;28;20039;-80
2024/03/22 05:50:01;;;;;;;24.20;15.43;;;;;;;6.92;100.00;100461.81;5083638;28;20036;-78
2024/03/22 05:52:26;;;;;;;23.48;14.75;;;;;;;7.12;100.00;100459.41;5086470;28;20016;-80
2024/03/22 05:54:51;;;;;;;29.00;14.43;;;;;;;7.32;100.00;100456.97;5086574;28;20068;-80
2024/03/22 05:57:17;;;;;;;22.80;13.85;;;;;;;7.52;100.00;100462.50;5086387;28;20023;-80
2024/03/22 05:59:42;;;;;;;21.70;13.27;;;;;;;7.98;100.00;100477.22;5086802;28;20532;-80
2024/03/22 06:02:08;;;;;;;22.08;13.70;;;;;;;8.10;100.00;100488.94;5086560;28;20016;-80
2024/03/22 06:04:34;;;;;;;24.48;13.90;;;;;;;8.21;100.00;100482.28;5086409;28;20031;-79
2024/03/22 06:07:00;;;;;;;26.23;15.45;;;;;;;8.23;99.54;100465.16;5085378;28;20020;-81
2024/03/22 06:09:45;;;;;;;21.13;12.85;;;;;;;8.19;94.48;100473.69;5084790;28;20050;-80
2024/03/22 06:12:14;;;;;;;21.02;13.90;;;;;;;8.20;96.04;100480.66;5086536;28;20036;-80
2024/03/22 06:14:41;;;;;;;21.00;13.52;;;;;;;8.02;95.54;100442.09;5086655;28;20032;-80
2024/03/22 06:17:06;;;;;;;21.13;13.57;;;;;;;8.37;93.99;100479.34;5086665;28;20027;-80
2024/03/22 06:19:32;;;;;;;23.23;14.25;;;;;;;8.34;95.39;100476.25;5086767;28;20028;-80
2024/03/22 06:21:57;;;;;;;24.27;14.10;;;;;;;8.23;92.37;100459.84;5068356;28;20024;-81
2024/03/22 06:24:23;;;;;;;22.05;13.90;;;;;;;8.41;95.70;100472.63;5067930;28;20611;-80
2024/03/22 06:26:49;;;;;;;23.05;14.93;;;;;;;8.52;91.63;100491.72;5068375;28;20028;-80
2024/03/22 06:29:16;;;;;;;22.75;14.23;;;;;;;8.35;91.17;100478.72;5086032;28;20055;-80
2024/03/22 06:31:42;;;;;;;23.98;14.18;;;;;;;8.46;90.42;100480.06;5069111;28;20035;-80
2024/03/22 06:34:07;;;;;;;20.75;13.57;;;;;;;8.33;93.63;100472.75;5082672;28;20063;-81
2024/03/22 06:36:33;;;;;;;22.98;15.32;;;;;;;8.24;96.57;100493.34;5068111;28;20039;-81
2024/03/22 06:39:04;;;;;;;21.77;14.77;;;;;;;7.78;100.00;100507.03;5086623;28;20072;-81
2024/03/22 06:41:29;;;;;;;26.92;15.57;;;;;;;7.65;100.00;100513.06;5079392;28;20094;-81
2024/03/22 06:43:55;;;;;;;27.83;16.73;;;;;;;7.94;100.00;100492.69;5059086;28;20457;-81
2024/03/22 06:46:20;;;;;;;24.90;15.15;;;;;;;8.08;100.00;100508.75;5068380;28;20035;-81
2024/03/22 06:48:46;;;;;;;22.38;14.30;;;;;;;8.35;94.69;100489.34;5068322;28;20024;-81
2024/03/22 06:51:11;;;;;;;22.48;15.10;;;;;;;8.40;95.68;100470.16;5085921;28;20029;-80
2024/03/22 06:53:38;;;;;;;21.73;14.95;;;;;;;9.08;89.05;100494.28;5080595;28;20074;-82
2024/03/22 06:56:03;;;;;;;20.42;13.10;;;;;;;8.81;88.00;100509.31;5066458;28;20063;-81
2024/03/22 06:58:29;;;;;;;22.48;13.90;;;;;;;9.05;89.12;100510.63;5074928;28;20081;-81
2024/03/22 07:00:54;;;;;;;18.55;12.27;;;;;;;8.95;84.14;100503.03;5085660;28;20032;-80
2024/03/22 07:03:20;;;;;;;23.17;14.70;;;;;;;9.09;95.02;100535.00;5059802;28;20028;-80
2024/03/22 07:05:47;;;;;;;22.38;14.85;;;;;;;9.17;98.15;100525.00;5083454;28;20047;-80
2024/03/22 07:08:13;;;;;;;23.52;14.95;;;;;;;9.08;89.48;100514.75;5086144;28;20024;-80
2024/03/22 07:10:39;;;;;;;19.40;13.27;;;;;;;9.30;84.77;100507.47;5048143;28;20089;-80
2024/03/22 07:13:05;;;;;;;23.35;14.77;;;;;;;9.33;91.00;100512.38;5074526;28;20473;-80
2024/03/22 07:15:32;;;;;;;24.50;14.52;;;;;;;9.33;88.82;100505.22;5077716;28;20031;-80
2024/03/22 07:17:57;;;;;;;20.95;14.10;;;;;;;9.48;91.35;100515.72;5080710;28;20036;-81
2024/03/22 07:20:23;;;;;;;22.27;13.63;;;;;;;9.33;83.53;100497.22;5088662;28;20419;-80
2024/03/22 07:22:48;;;;;;;22.88;15.63;;;;;;;9.77;87.36;100503.09;5089312;28;20472;-81
2024/03/22 07:25:14;;;;;;;21.15;14.05;;;;;;;9.21;86.02;100478.38;5089427;28;20465;-80
2024/03/22 07:27:39;;;;;;;20.02;13.57;;;;;;;9.68;83.95;100525.59;5089692;28;20024;-80
2024/03/22 07:30:05;;;;;;;20.00;13.07;;;;;;;9.76;82.66;100539.53;5070951;28;20044;-79
2024/03/22 07:32:31;;;;;;;23.30;13.95;;;;;;;9.60;85.50;100518.59;5089342;28;20044;-79
2024/03/22 07:34:57;;;;;;;19.52;12.52;;;;;;;9.60;83.18;100535.41;5089260;28;20032;-79
2024/03/22 07:37:23;;;;;;;21.58;13.75;;;;;;;9.95;85.14;100532.63;5089526;28;20031;-79
2024/03/22 07:39:49;;;;;;;20.83;12.43;;;;;;;9.71;82.65;100546.50;5089100;28;20027;-80
2024/03/22 07:42:14;;;;;;;17.70;10.18;;;;;;;9.53;84.39;100537.22;5088593;28;20467;-80
2024/03/22 07:44:40;;;;;;;15.65;10.52;;;;;;;9.81;76.91;100520.31;5089004;28;20024;-79
2024/03/22 07:47:05;;;;;;;14.95;8.88;;;;;;;9.91;76.01;100546.53;5089162;28;20032;-79
2024/03/22 07:49:31;;;;;;;11.93;6.57;;;;;;;9.99;74.02;100539.19;5070877;28;20412;-79
2024/03/22 07:51:57;;;;;;;9.68;6.13;;;;;;;9.81;70.31;100528.28;5088758;28;20043;-80
2024/03/22 07:54:22;;;;;;;10.32;6.20;;;;;;;10.13;71.26;100545.31;5088975;28;20032;-78
2024/03/22 07:56:47;;;;;;;11.32;6.18;;;;;;;10.57;67.28;100533.25;5088229;28;20081;-79
2024/03/22 07:59:13;;;;;;;10.57;6.90;;;;;;;10.42;69.33;100549.47;5089222;28;20044;-78
2024/03/22 08:01:38;;;;;;;10.82;6.50;;;;;;;10.09;69.46;100544.09;5088176;28;20028;-79
2024/03/22 08:04:04;;;;;;;10.18;6.35;;;;;;;10.18;68.02;100547.41;5089142;28;20040;-79
2024/03/22 08:06:29;;;;;;;11.13;7.03;;;;;;;10.43;68.67;100560.97;5088747;28;20464;-79
2024/03/22 08:08:55;;;;;;;9.63;6.10;;;;;;;10.28;64.00;100531.81;5088688;28;20489;-79
2024/03/22 08:11:20;;;;;;;8.18;5.13;;;;;;;10.69;61.92;100554.78;5089274;28;20028;-80
2024/03/22 08:13:46;;;;;;;10.13;6.00;;;;;;;10.72;61.81;100554.34;5070375;28;20028;-80
2024/03/22 08:16:11;;;;;;;8.63;4.97;;;;;;;10.98;60.91;100542.00;5088360;28;20543;-80
2024/03/22 08:18:37;;;;;;;8.45;5.30;;;;;;;11.22;60.19;100548.50;5088315;28;20030;-79
2024/03/22 08:21:03;;;;;;;7.65;3.90;;;;;;;11.22;54.92;100554.66;5070226;28;20059;-79
2024/03/22 08:23:28;;;;;;;7.13;4.28;;;;;;;11.42;56.03;100554.56;5088150;28;20521;-80
2024/03/22 08:25:54;;;;;;;8.32;5.03;;;;;;;11.53;57.23;100531.72;5088381;28;20508;-80
2024/03/22 08:28:19;;;;;;;5.60;3.08;;;;;;;11.49;51.22;100570.56;5088151;28;20028;-80
2024/03/22 08:30:45;;;;;;;5.47;3.17;;;;;;;11.55;55.08;100553.69;5088394;28;20024;-79
2024/03/22 08:33:14;;;;;;;6.40;3.28;;;;;;;11.99;55.02;100560.06;5087812;28;20038;-79
2024/03/22 08:35:39;;;;;;;6.65;4.13;;;;;;;12.28;56.49;100552.44;5088390;28;20036;-79
2024/03/22 08:38:09;;;;;;;6.80;3.40;;;;;;;12.13;53.74;100535.88;5088288;28;20440;-80
2024/03/22 08:40:38;;;;;;;7.28;3.30;;;;;;;11.80;53.26;100545.72;5088122;28;20039;-79
2024/03/22 08:43:05;;;;;;;5.35;3.20;;;;;;;12.02;52.92;100542.75;5087495;28;20043;-79
2024/03/22 08:45:30;;;;;;;5.53;3.15;;;;;;;12.44;51.62;100551.88;5087539;28;20113;-79
2024/03/22 08:47:55;;;;;;;4.88;2.92;;;;;;;12.41;50.85;100554.97;5088172;28;20044;-79
2024/03/22 08:50:21;;;;;;;6.32;3.63;;;;;;;12.12;53.11;100531.59;5088339;28;20400;-80
2024/03/22 08:52:46;;;;;;;6.20;2.97;;;;;;;12.54;51.97;100550.56;5087797;28;20119;-79
2024/03/22 08:55:13;;;;;;;6.13;3.17;;;;;;;12.45;48.72;100558.03;5087545;28;20385;-79
2024/03/22 08:57:38;;;;;;;5.05;2.70;;;;;;;12.77;46.40;100550.75;5087555;28;20039;-79
2024/03/22 09:00:04;;;;;;;7.75;3.17;;;;;;;13.14;44.58;100550.78;5087767;28;20035;-79
2024/03/22 09:02:29;;;;;;;4.93;2.65;;;;;;;13.24;47.86;100539.53;5087543;28;20055;-79
2024/03/22 09:04:55;;;;;;;4.47;2.42;;;;;;;13.37;47.03;100530.53;5069797;28;20042;-79
2024/03/22 09:07:21;;;;;;;3.70;2.35;;;;;;;13.76;44.39;100552.47;5087280;28;20043;-78
2024/03/22 09:09:46;;;;;;;4.32;2.00;;;;;;;13.62;42.61;100509.78;5087838;28;20020;-79
2024/03/22 09:12:12;;;;;;;4.28;2.50;;;;;;;13.53;42.30;100524.56;5087301;28;20028;-79
2024/03/22 09:14:37;;;;;;;5.88;2.38;;;;;;;13.93;41.94;100532.00;5087543;28;20039;-79
2024/03/22 09:17:02;;;;;;;7.38;2.60;;;;;;;14.32;42.99;100508.28;5086895;28;20466;-79
2024/03/22 09:19:28;;;;;;;3.80;1.83;;;;;;;14.47;39.26;100522.06;5087207;28;20032;-79
2024/03/22 09:21:53;;;;;;;6.03;2.20;;;;;;;14.80;39.31;100520.66;5087664;28;20093;-80
2024/03/22 09:24:18;;;;;;;3.85;2.10;;;;;;;14.84;40.50;100519.13;5086905;28;20020;-79
2024/03/22 09:26:44;;;;;;;5.20;2.30;;;;;;;14.82;39.60;100534.66;5085629;28;20644;-80
2024/03/22 09:29:09;;;;;;;5.50;2.67;;;;;;;15.06;37.36;100523.91;5085359;28;20048;-80
2024/03/22 09:31:35;;;;;;;4.32;2.13;;;;;;;15.09;39.45;100501.91;5086285;28;20522;-80
2024/03/22 09:34:01;;;;;;;4.97;2.70;;;;;;;15.44;38.86;100525.16;5085640;28;20028;-80
2024/03/22 09:36:27;;;;;;;4.63;2.50;;;;;;;15.05;38.08;100517.69;5085524;28;20110;-79
2024/03/22 09:38:53;;;;;;;6.00;2.95;;;;;;;14.76;42.21;100513.31;5085623;28;20040;-80
2024/03/22 09:41:24;;;;;;;4.75;2.67;;;;;;;14.91;43.10;100499.41;5087183;28;20047;-79
2024/03/22 09:43:51;;;;;;;5.93;3.15;;;;;;;14.80;42.12;100483.06;5087296;28;20030;-80
2024/03/22 09:46:20;;;;;;;4.45;2.85;;;;;;;14.78;43.75;100506.66;5086179;28;20436;-79
2024/03/22 09:48:48;;;;;;;5.20;2.92;;;;;;;15.01;42.06;100499.59;5087166;28;20028;-80
2024/03/22 09:51:16;;;;;;;6.43;2.60;;;;;;;15.42;41.83;100489.66;5086694;28;20102;-80
2024/03/22 09:53:44;;;;;;;4.78;2.58;;;;;;;15.92;40.16;100491.66;5086560;28;20500;-79
2024/03/22 09:56:13;;;;;;;5.57;2.95;;;;;;;16.03;41.39;100517.63;5086437;28;20035;-79
2024/03/22 09:58:39;;;;;;;4.90;2.42;;;;;;;15.81;39.15;100519.41;5086610;28;20961;-80
2024/03/22 10:01:05;;;;;;;5.03;2.53;;;;;;;15.52;39.03;100499.78;5068445;28;20036;-79
2024/03/22 10:03:30;;;;;;;4.03;2.50;;;;;;;15.38;39.43;100483.13;5086672;28;20672;-80
2024/03/22 10:05:56;;;;;;;4.38;2.65;;;;;;;15.56;38.31;100496.38;5086840;28;20054;-79
2024/03/22 10:08:21;;;;;;;5.30;2.20;;;;;;;15.95;40.68;100487.66;5086337;28;20028;-79
2024/03/22 10:10:47;;;;;;;4.72;1.90;;;;;;;16.23;33.51;100479.50;5068480;28;20060;-79
2024/03/22 10:13:12;;;;;;;4.25;1.95;;;;;;;16.84;33.19;100498.41;5086481;28;20036;-80
2024/03/22 10:15:38;;;;;;;4.22;2.30;;;;;;;16.23;37.47;100474.09;5086522;28;20024;-80
2024/03/22 10:18:04;;;;;;;3.95;2.20;;;;;;;16.37;37.61;100485.34;5086621;28;20028;-80
2024/03/22 10:20:29;;;;;;;4.05;2.40;;;;;;;16.47;36.39;100490.88;5086403;28;20028;-79
2024/03/22 10:22:57;;;;;;;4.57;2.40;;;;;;;16.71;35.93;100489.84;5086119;28;20043;-79
2024/03/22 10:25:23;;;;;;;5.10;2.60;;;;;;;17.55;37.85;100481.44;5086892;28;20080;-80
2024/03/22 10:27:48;;;;;;;3.97;2.15;;;;;;;16.94;35.80;100443.84;5086116;28;20036;-79
2024/03/22 10:30:18;;;;;;;3.28;2.28;;;;;;;17.13;35.65;100465.88;5067743;28;20490;-79
2024/03/22 10:32:44;;;;;;;10.40;5.95;;;;;;;17.02;34.51;100477.59;5068277;28;20048;-79
2024/03/22 10:35:14;;;;;;;5.30;2.42;;;;;;;16.82;35.30;100470.09;5086311;28;20059;-79
2024/03/22 10:37:40;;;;;;;3.67;2.20;;;;;;;16.58;36.88;100443.38;5086610;28;20028;-78
2024/03/22 10:40:12;;;;;;;5.68;2.30;;;;;;;16.45;37.15;100455.31;5086458;28;20047;-78
2024/03/22 10:42:39;;;;;;;3.90;2.00;;;;;;;16.89;36.44;100470.72;5086457;28;20115;-78
2024/03/22 10:45:13;;;;;;;5.72;2.42;;;;;;;16.94;36.04;100451.94;5085943;28;20031;-80
2024/03/22 10:47:39;;;;;;;4.95;2.30;;;;;;;16.16;36.54;100456.50;5068094;28;20107;-79
2024/03/22 10:50:06;;;;;;;5.35;2.70;;;;;;;15.95;36.92;100453.50;5086647;28;20065;-79
2024/03/22 10:52:45;;;;;;;4.55;2.60;;;;;;;15.95;38.33;100433.84;5071523;28;20040;-79
2024/03/22 10:55:30;;;;;;;4.85;2.63;;;;;;;16.30;36.99;100435.44;5089732;28;20039;-79
2024/03/22 10:57:56;;;;;;;4.78;2.50;;;;;;;16.92;36.82;100431.66;5089898;28;20115;-80
2024/03/22 11:00:29;;;;;;;5.28;2.50;;;;;;;16.71;36.18;100442.19;5071831;28;20026;-80
2024/03/22 11:02:55;;;;;;;4.78;2.40;;;;;;;16.38;36.12;100433.13;5089754;28;20093;-80
2024/03/22 11:05:21;;;;;;;5.38;2.33;;;;;;;16.55;37.54;100426.88;5071816;28;20032;-80
2024/03/22 11:07:46;;;;;;;4.40;2.10;;;;;;;16.36;35.77;100402.97;5071696;28;20404;-79
2024/03/22 11:10:12;;;;;;;4.30;2.38;;;;;;;17.16;32.97;100422.28;5071424;28;20020;-80